sensor_id;sensor_type;location;lat;lon;timestamp;temperature;humidity
3548;DHT22;1788;49.400;11.092;2023-07-28T00:00:15;19.20;78.50
3548;DHT22;1788;49.400;11.092;2023-07-28T00:02:41;19.20;78.50
3548;DHT22;1788;49.400;11.092;2023-07-28T00:05:08;19.20;78.50
3548;DHT22;1788;49.400;11.092;2023-07-28T00:07:34;19.20;78.50
3548;DHT22;1788;49.400;11.092;2023-07-28T00:10:01;19.30;78.60
3548;DHT22;1788;49.400;11.092;2023-07-28T00:12:28;19.20;78.50
3548;DHT22;1788;49.400;11.092;2023-07-28T00:14:54;19.20;78.50
3548;DHT22;1788;49.400;11.092;2023-07-28T00:17:21;19.20;78.60
3548;DHT22;1788;49.400;11.092;2023-07-28T00:19:48;19.20;78.70
3548;DHT22;1788;49.400;11.092;2023-07-28T00:22:15;19.20;78.60
3548;DHT22;1788;49.400;11.092;2023-07-28T00:24:42;19.20;78.70
3548;DHT22;1788;49.400;11.092;2023-07-28T00:27:09;19.20;78.60
3548;DHT22;1788;49.400;11.092;2023-07-28T00:29:36;19.20;78.60
3548;DHT22;1788;49.400;11.092;2023-07-28T00:32:02;19.30;78.70
3548;DHT22;1788;49.400;11.092;2023-07-28T00:34:29;19.20;78.50
3548;DHT22;1788;49.400;11.092;2023-07-28T00:36:56;19.30;78.70
3548;DHT22;1788;49.400;11.092;2023-07-28T00:39:23;19.30;78.70
3548;DHT22;1788;49.400;11.092;2023-07-28T00:41:50;19.30;78.70
3548;DHT22;1788;49.400;11.092;2023-07-28T00:44:17;19.30;78.70
3548;DHT22;1788;49.400;11.092;2023-07-28T00:46:44;19.20;78.60
3548;DHT22;1788;49.400;11.092;2023-07-28T00:49:10;19.20;78.70
3548;DHT22;1788;49.400;11.092;2023-07-28T00:51:37;19.20;78.80
3548;DHT22;1788;49.400;11.092;2023-07-28T00:54:03;19.20;78.90
3548;DHT22;1788;49.400;11.092;2023-07-28T00:56:30;19.20;78.90
3548;DHT22;1788;49.400;11.092;2023-07-28T00:58:57;19.20;78.90
3548;DHT22;1788;49.400;11.092;2023-07-28T01:01:23;19.20;78.90
3548;DHT22;1788;49.400;11.092;2023-07-28T01:03:50;19.20;78.90
3548;DHT22;1788;49.400;11.092;2023-07-28T01:11:10;19.20;78.80
3548;DHT22;1788;49.400;11.092;2023-07-28T01:13:37;19.20;78.70
3548;DHT22;1788;49.400;11.092;2023-07-28T01:16:05;19.20;78.80
3548;DHT22;1788;49.400;11.092;2023-07-28T01:18:31;19.10;78.70
3548;DHT22;1788;49.400;11.092;2023-07-28T01:20:58;19.20;78.90
3548;DHT22;1788;49.400;11.092;2023-07-28T01:23:30;19.10;78.80
3548;DHT22;1788;49.400;11.092;2023-07-28T01:28:18;19.10;78.90
3548;DHT22;1788;49.400;11.092;2023-07-28T01:30:45;19.10;79.00
3548;DHT22;1788;49.400;11.092;2023-07-28T01:33:12;19.10;79.10
3548;DHT22;1788;49.400;11.092;2023-07-28T01:35:40;19.00;79.00
3548;DHT22;1788;49.400;11.092;2023-07-28T01:38:06;19.10;79.10
3548;DHT22;1788;49.400;11.092;2023-07-28T01:40:33;19.10;79.10
3548;DHT22;1788;49.400;11.092;2023-07-28T01:42:59;19.00;79.10
3548;DHT22;1788;49.400;11.092;2023-07-28T01:45:27;19.00;78.70
3548;DHT22;1788;49.400;11.092;2023-07-28T01:47:53;19.00;79.30
3548;DHT22;1788;49.400;11.092;2023-07-28T01:50:20;19.00;79.30
3548;DHT22;1788;49.400;11.092;2023-07-28T01:52:47;19.00;79.30
3548;DHT22;1788;49.400;11.092;2023-07-28T01:55:13;19.00;79.40
3548;DHT22;1788;49.400;11.092;2023-07-28T01:57:49;19.00;79.40
3548;DHT22;1788;49.400;11.092;2023-07-28T02:00:07;19.00;79.40
3548;DHT22;1788;49.400;11.092;2023-07-28T02:02:35;19.00;79.50
3548;DHT22;1788;49.400;11.092;2023-07-28T02:05:01;19.00;79.40
3548;DHT22;1788;49.400;11.092;2023-07-28T02:07:28;18.90;79.40
3548;DHT22;1788;49.400;11.092;2023-07-28T02:09:54;18.90;79.50
3548;DHT22;1788;49.400;11.092;2023-07-28T02:12:21;18.90;79.60
3548;DHT22;1788;49.400;11.092;2023-07-28T02:14:48;18.90;79.70
3548;DHT22;1788;49.400;11.092;2023-07-28T02:17:14;18.90;79.80
3548;DHT22;1788;49.400;11.092;2023-07-28T02:19:41;18.90;79.70
3548;DHT22;1788;49.400;11.092;2023-07-28T02:22:07;18.90;79.70
3548;DHT22;1788;49.400;11.092;2023-07-28T02:24:35;19.00;79.80
3548;DHT22;1788;49.400;11.092;2023-07-28T02:27:01;19.00;79.80
3548;DHT22;1788;49.400;11.092;2023-07-28T02:29:29;19.00;79.60
3548;DHT22;1788;49.400;11.092;2023-07-28T02:31:55;19.00;79.60
3548;DHT22;1788;49.400;11.092;2023-07-28T02:34:22;19.00;79.60
3548;DHT22;1788;49.400;11.092;2023-07-28T02:36:49;19.00;79.70
3548;DHT22;1788;49.400;11.092;2023-07-28T02:39:15;19.00;79.80
3548;DHT22;1788;49.400;11.092;2023-07-28T02:41:42;19.10;79.90
3548;DHT22;1788;49.400;11.092;2023-07-28T02:44:08;19.10;79.90
3548;DHT22;1788;49.400;11.092;2023-07-28T02:46:35;19.10;79.90
3548;DHT22;1788;49.400;11.092;2023-07-28T02:49:02;19.10;79.80
3548;DHT22;1788;49.400;11.092;2023-07-28T02:51:30;19.20;79.90
3548;DHT22;1788;49.400;11.092;2023-07-28T02:53:56;19.10;79.80
3548;DHT22;1788;49.400;11.092;2023-07-28T02:56:22;19.20;79.80
3548;DHT22;1788;49.400;11.092;2023-07-28T02:58:49;19.20;79.80
3548;DHT22;1788;49.400;11.092;2023-07-28T03:01:16;19.30;79.80
3548;DHT22;1788;49.400;11.092;2023-07-28T03:03:43;19.30;79.50
3548;DHT22;1788;49.400;11.092;2023-07-28T03:06:10;19.30;79.50
3548;DHT22;1788;49.400;11.092;2023-07-28T03:08:37;19.40;79.30
3548;DHT22;1788;49.400;11.092;2023-07-28T03:11:04;19.40;79.30
3548;DHT22;1788;49.400;11.092;2023-07-28T03:13:31;19.50;79.20
3548;DHT22;1788;49.400;11.092;2023-07-28T03:15:58;19.50;79.10
3548;DHT22;1788;49.400;11.092;2023-07-28T03:18:24;19.50;79.00
3548;DHT22;1788;49.400;11.092;2023-07-28T03:20:51;19.50;78.80
3548;DHT22;1788;49.400;11.092;2023-07-28T03:23:17;19.50;78.80
3548;DHT22;1788;49.400;11.092;2023-07-28T03:25:44;19.50;78.80
3548;DHT22;1788;49.400;11.092;2023-07-28T03:28:11;19.50;78.80
3548;DHT22;1788;49.400;11.092;2023-07-28T03:30:37;19.50;78.80
3548;DHT22;1788;49.400;11.092;2023-07-28T03:33:04;19.50;78.80
3548;DHT22;1788;49.400;11.092;2023-07-28T03:35:31;19.50;78.60
3548;DHT22;1788;49.400;11.092;2023-07-28T03:37:58;19.50;78.60
3548;DHT22;1788;49.400;11.092;2023-07-28T03:40:24;19.50;78.60
3548;DHT22;1788;49.400;11.092;2023-07-28T03:42:51;19.50;78.50
3548;DHT22;1788;49.400;11.092;2023-07-28T03:45:18;19.50;78.60
3548;DHT22;1788;49.400;11.092;2023-07-28T03:47:44;19.50;78.60
3548;DHT22;1788;49.400;11.092;2023-07-28T03:50:11;19.50;78.70
3548;DHT22;1788;49.400;11.092;2023-07-28T03:52:37;19.40;78.60
3548;DHT22;1788;49.400;11.092;2023-07-28T03:55:04;19.40;78.70
3548;DHT22;1788;49.400;11.092;2023-07-28T03:57:31;19.40;78.80
3548;DHT22;1788;49.400;11.092;2023-07-28T03:59:57;19.40;78.80
3548;DHT22;1788;49.400;11.092;2023-07-28T04:02:24;19.40;78.90
3548;DHT22;1788;49.400;11.092;2023-07-28T04:07:18;19.30;78.90
3548;DHT22;1788;49.400;11.092;2023-07-28T04:09:45;19.30;78.90
3548;DHT22;1788;49.400;11.092;2023-07-28T04:12:12;19.30;78.90
3548;DHT22;1788;49.400;11.092;2023-07-28T04:14:39;19.30;79.10
3548;DHT22;1788;49.400;11.092;2023-07-28T04:17:06;19.30;79.10
3548;DHT22;1788;49.400;11.092;2023-07-28T04:19:32;19.30;79.10
3548;DHT22;1788;49.400;11.092;2023-07-28T04:21:59;19.20;79.20
3548;DHT22;1788;49.400;11.092;2023-07-28T04:24:26;19.20;79.30
3548;DHT22;1788;49.400;11.092;2023-07-28T04:26:52;19.20;79.30
3548;DHT22;1788;49.400;11.092;2023-07-28T04:29:19;19.20;79.40
3548;DHT22;1788;49.400;11.092;2023-07-28T04:31:46;19.20;79.50
3548;DHT22;1788;49.400;11.092;2023-07-28T04:34:12;19.20;79.60
3548;DHT22;1788;49.400;11.092;2023-07-28T04:36:40;19.20;79.60
3548;DHT22;1788;49.400;11.092;2023-07-28T04:39:06;19.10;79.50
3548;DHT22;1788;49.400;11.092;2023-07-28T04:41:33;19.20;79.80
3548;DHT22;1788;49.400;11.092;2023-07-28T04:44:00;19.10;79.70
3548;DHT22;1788;49.400;11.092;2023-07-28T04:46:28;19.20;79.50
3548;DHT22;1788;49.400;11.092;2023-07-28T04:48:54;19.10;79.80
3548;DHT22;1788;49.400;11.092;2023-07-28T04:51:21;19.20;80.00
3548;DHT22;1788;49.400;11.092;2023-07-28T04:53:47;19.10;80.00
3548;DHT22;1788;49.400;11.092;2023-07-28T04:56:14;19.10;80.00
3548;DHT22;1788;49.400;11.092;2023-07-28T04:58:41;19.20;80.30
3548;DHT22;1788;49.400;11.092;2023-07-28T05:01:08;19.10;80.20
3548;DHT22;1788;49.400;11.092;2023-07-28T05:03:35;19.20;80.30
3548;DHT22;1788;49.400;11.092;2023-07-28T05:06:03;19.20;80.30
3548;DHT22;1788;49.400;11.092;2023-07-28T05:08:29;19.20;80.10
3548;DHT22;1788;49.400;11.092;2023-07-28T05:10:55;19.30;80.30
3548;DHT22;1788;49.400;11.092;2023-07-28T05:13:22;19.30;80.20
3548;DHT22;1788;49.400;11.092;2023-07-28T05:15:49;19.30;80.20
3548;DHT22;1788;49.400;11.092;2023-07-28T05:18:16;19.30;80.10
3548;DHT22;1788;49.400;11.092;2023-07-28T05:20:43;19.30;80.90
3548;DHT22;1788;49.400;11.092;2023-07-28T05:23:10;19.30;80.20
3548;DHT22;1788;49.400;11.092;2023-07-28T05:25:37;19.30;79.60
3548;DHT22;1788;49.400;11.092;2023-07-28T05:28:04;19.30;80.20
3548;DHT22;1788;49.400;11.092;2023-07-28T05:30:30;19.30;80.10
3548;DHT22;1788;49.400;11.092;2023-07-28T05:32:57;19.30;80.20
3548;DHT22;1788;49.400;11.092;2023-07-28T05:35:24;19.30;80.20
3548;DHT22;1788;49.400;11.092;2023-07-28T05:37:51;19.30;80.40
3548;DHT22;1788;49.400;11.092;2023-07-28T05:40:18;19.30;80.40
3548;DHT22;1788;49.400;11.092;2023-07-28T05:42:45;19.30;80.40
3548;DHT22;1788;49.400;11.092;2023-07-28T05:45:12;19.30;80.40
3548;DHT22;1788;49.400;11.092;2023-07-28T05:47:38;19.30;80.40
3548;DHT22;1788;49.400;11.092;2023-07-28T05:50:05;19.30;80.40
3548;DHT22;1788;49.400;11.092;2023-07-28T05:52:31;19.30;80.50
3548;DHT22;1788;49.400;11.092;2023-07-28T05:54:58;19.30;80.50
3548;DHT22;1788;49.400;11.092;2023-07-28T05:57:25;19.30;80.60
3548;DHT22;1788;49.400;11.092;2023-07-28T05:59:51;19.30;80.70
3548;DHT22;1788;49.400;11.092;2023-07-28T06:02:18;19.30;80.70
3548;DHT22;1788;49.400;11.092;2023-07-28T06:04:45;19.40;80.80
3548;DHT22;1788;49.400;11.092;2023-07-28T06:07:13;19.40;80.80
3548;DHT22;1788;49.400;11.092;2023-07-28T06:09:39;19.40;80.80
3548;DHT22;1788;49.400;11.092;2023-07-28T06:12:06;19.40;80.80
3548;DHT22;1788;49.400;11.092;2023-07-28T06:14:33;19.50;80.80
3548;DHT22;1788;49.400;11.092;2023-07-28T06:17:00;19.50;80.80
3548;DHT22;1788;49.400;11.092;2023-07-28T06:19:27;19.60;80.80
3548;DHT22;1788;49.400;11.092;2023-07-28T06:21:54;19.50;81.50
3548;DHT22;1788;49.400;11.092;2023-07-28T06:24:21;19.60;80.80
3548;DHT22;1788;49.400;11.092;2023-07-28T06:26:48;19.60;80.80
3548;DHT22;1788;49.400;11.092;2023-07-28T06:29:14;19.60;80.70
3548;DHT22;1788;49.400;11.092;2023-07-28T06:31:41;19.60;80.70
3548;DHT22;1788;49.400;11.092;2023-07-28T06:34:08;19.70;80.80
3548;DHT22;1788;49.400;11.092;2023-07-28T06:36:35;19.70;80.80
3548;DHT22;1788;49.400;11.092;2023-07-28T06:39:02;19.70;80.80
3548;DHT22;1788;49.400;11.092;2023-07-28T06:41:29;19.70;80.80
3548;DHT22;1788;49.400;11.092;2023-07-28T06:43:56;19.70;80.80
3548;DHT22;1788;49.400;11.092;2023-07-28T06:46:24;19.70;80.80
3548;DHT22;1788;49.400;11.092;2023-07-28T06:48:50;19.70;80.80
3548;DHT22;1788;49.400;11.092;2023-07-28T06:51:17;19.70;80.80
3548;DHT22;1788;49.400;11.092;2023-07-28T06:53:43;19.80;80.80
3548;DHT22;1788;49.400;11.092;2023-07-28T06:56:10;19.70;80.70
3548;DHT22;1788;49.400;11.092;2023-07-28T06:58:37;19.70;81.60
3548;DHT22;1788;49.400;11.092;2023-07-28T07:01:04;19.70;80.80
3548;DHT22;1788;49.400;11.092;2023-07-28T07:03:31;19.70;80.80
3548;DHT22;1788;49.400;11.092;2023-07-28T07:05:58;19.60;80.90
3548;DHT22;1788;49.400;11.092;2023-07-28T07:08:25;19.60;80.90
3548;DHT22;1788;49.400;11.092;2023-07-28T07:10:52;19.60;81.80
3548;DHT22;1788;49.400;11.092;2023-07-28T07:13:19;19.60;81.00
3548;DHT22;1788;49.400;11.092;2023-07-28T07:15:45;19.60;81.10
3548;DHT22;1788;49.400;11.092;2023-07-28T07:18:12;19.60;81.20
3548;DHT22;1788;49.400;11.092;2023-07-28T07:20:38;19.60;81.40
3548;DHT22;1788;49.400;11.092;2023-07-28T07:23:06;19.60;81.50
3548;DHT22;1788;49.400;11.092;2023-07-28T07:25:32;19.60;81.50
3548;DHT22;1788;49.400;11.092;2023-07-28T07:28:00;19.60;81.90
3548;DHT22;1788;49.400;11.092;2023-07-28T07:30:26;19.60;81.90
3548;DHT22;1788;49.400;11.092;2023-07-28T07:32:54;19.70;82.00
3548;DHT22;1788;49.400;11.092;2023-07-28T07:35:20;19.70;82.00
3548;DHT22;1788;49.400;11.092;2023-07-28T07:37:47;19.70;81.90
3548;DHT22;1788;49.400;11.092;2023-07-28T07:40:14;19.70;81.90
3548;DHT22;1788;49.400;11.092;2023-07-28T07:45:09;19.80;81.90
3548;DHT22;1788;49.400;11.092;2023-07-28T07:47:35;19.70;81.90
3548;DHT22;1788;49.400;11.092;2023-07-28T07:50:01;19.80;82.00
3548;DHT22;1788;49.400;11.092;2023-07-28T07:52:28;19.70;81.80
3548;DHT22;1788;49.400;11.092;2023-07-28T07:54:55;19.70;81.90
3548;DHT22;1788;49.400;11.092;2023-07-28T07:57:21;19.80;82.10
3548;DHT22;1788;49.400;11.092;2023-07-28T07:59:52;19.80;82.20
3548;DHT22;1788;49.400;11.092;2023-07-28T08:02:19;19.80;82.20
3548;DHT22;1788;49.400;11.092;2023-07-28T08:04:45;19.90;82.30
3548;DHT22;1788;49.400;11.092;2023-07-28T08:07:12;19.90;82.20
3548;DHT22;1788;49.400;11.092;2023-07-28T08:09:39;20.00;82.10
3548;DHT22;1788;49.400;11.092;2023-07-28T08:12:06;20.00;82.00
3548;DHT22;1788;49.400;11.092;2023-07-28T08:14:33;20.00;81.90
3548;DHT22;1788;49.400;11.092;2023-07-28T08:16:59;20.00;81.90
3548;DHT22;1788;49.400;11.092;2023-07-28T08:19:26;20.00;81.90
3548;DHT22;1788;49.400;11.092;2023-07-28T08:21:53;20.10;82.00
3548;DHT22;1788;49.400;11.092;2023-07-28T08:24:20;20.10;82.00
3548;DHT22;1788;49.400;11.092;2023-07-28T08:26:47;20.10;82.00
3548;DHT22;1788;49.400;11.092;2023-07-28T08:29:14;20.10;82.00
3548;DHT22;1788;49.400;11.092;2023-07-28T08:31:41;20.10;81.90
3548;DHT22;1788;49.400;11.092;2023-07-28T08:34:08;20.20;82.00
3548;DHT22;1788;49.400;11.092;2023-07-28T08:36:35;20.20;82.00
3548;DHT22;1788;49.400;11.092;2023-07-28T08:39:01;20.20;82.10
3548;DHT22;1788;49.400;11.092;2023-07-28T08:41:28;20.30;82.30
3548;DHT22;1788;49.400;11.092;2023-07-28T08:43:54;20.40;82.50
3548;DHT22;1788;49.400;11.092;2023-07-28T08:46:22;20.60;82.60
3548;DHT22;1788;49.400;11.092;2023-07-28T08:48:48;20.60;82.60
3548;DHT22;1788;49.400;11.092;2023-07-28T08:51:15;20.70;82.40
3548;DHT22;1788;49.400;11.092;2023-07-28T08:53:42;20.80;82.30
3548;DHT22;1788;49.400;11.092;2023-07-28T08:56:08;20.90;82.20
3548;DHT22;1788;49.400;11.092;2023-07-28T08:58:36;21.00;81.70
3548;DHT22;1788;49.400;11.092;2023-07-28T09:01:02;21.00;81.70
3548;DHT22;1788;49.400;11.092;2023-07-28T09:03:30;21.10;81.20
3548;DHT22;1788;49.400;11.092;2023-07-28T09:08:23;21.10;80.80
3548;DHT22;1788;49.400;11.092;2023-07-28T09:10:49;21.10;80.70
3548;DHT22;1788;49.400;11.092;2023-07-28T09:13:17;21.10;80.70
3548;DHT22;1788;49.400;11.092;2023-07-28T09:15:44;21.10;80.40
3548;DHT22;1788;49.400;11.092;2023-07-28T09:18:11;21.10;80.40
3548;DHT22;1788;49.400;11.092;2023-07-28T09:20:38;21.10;80.00
3548;DHT22;1788;49.400;11.092;2023-07-28T09:23:05;21.10;80.00
3548;DHT22;1788;49.400;11.092;2023-07-28T09:25:32;21.10;80.00
3548;DHT22;1788;49.400;11.092;2023-07-28T09:27:58;21.10;79.80
3548;DHT22;1788;49.400;11.092;2023-07-28T09:30:25;21.20;79.70
3548;DHT22;1788;49.400;11.092;2023-07-28T09:32:53;21.20;79.60
3548;DHT22;1788;49.400;11.092;2023-07-28T09:35:20;21.30;79.30
3548;DHT22;1788;49.400;11.092;2023-07-28T09:37:47;21.20;79.20
3548;DHT22;1788;49.400;11.092;2023-07-28T09:40:17;21.30;79.40
3548;DHT22;1788;49.400;11.092;2023-07-28T09:42:40;21.30;78.60
3548;DHT22;1788;49.400;11.092;2023-07-28T09:45:08;21.30;79.00
3548;DHT22;1788;49.400;11.092;2023-07-28T09:47:34;21.30;78.20
3548;DHT22;1788;49.400;11.092;2023-07-28T09:52:27;21.30;77.70
3548;DHT22;1788;49.400;11.092;2023-07-28T09:54:54;21.20;77.60
3548;DHT22;1788;49.400;11.092;2023-07-28T09:57:20;21.20;77.60
3548;DHT22;1788;49.400;11.092;2023-07-28T09:59:47;21.20;77.50
3548;DHT22;1788;49.400;11.092;2023-07-28T10:02:14;21.20;77.50
3548;DHT22;1788;49.400;11.092;2023-07-28T10:04:40;21.20;77.30
3548;DHT22;1788;49.400;11.092;2023-07-28T10:07:07;21.20;77.20
3548;DHT22;1788;49.400;11.092;2023-07-28T10:09:34;21.20;77.30
3548;DHT22;1788;49.400;11.092;2023-07-28T10:12:01;21.20;77.40
3548;DHT22;1788;49.400;11.092;2023-07-28T10:14:27;21.30;77.50
3548;DHT22;1788;49.400;11.092;2023-07-28T10:16:53;21.40;77.50
3548;DHT22;1788;49.400;11.092;2023-07-28T10:19:20;21.50;77.40
3548;DHT22;1788;49.400;11.092;2023-07-28T10:21:47;21.70;77.10
3548;DHT22;1788;49.400;11.092;2023-07-28T10:24:14;22.00;76.40
3548;DHT22;1788;49.400;11.092;2023-07-28T10:26:41;22.00;76.40
3548;DHT22;1788;49.400;11.092;2023-07-28T10:31:34;22.10;75.70
3548;DHT22;1788;49.400;11.092;2023-07-28T10:34:00;22.10;75.30
3548;DHT22;1788;49.400;11.092;2023-07-28T10:36:34;22.00;75.10
3548;DHT22;1788;49.400;11.092;2023-07-28T10:41:22;21.90;75.30
3548;DHT22;1788;49.400;11.092;2023-07-28T10:43:49;21.90;75.30
3548;DHT22;1788;49.400;11.092;2023-07-28T10:46:17;21.90;75.20
3548;DHT22;1788;49.400;11.092;2023-07-28T10:48:43;21.90;75.20
3548;DHT22;1788;49.400;11.092;2023-07-28T10:51:10;22.00;75.20
3548;DHT22;1788;49.400;11.092;2023-07-28T10:53:36;22.10;75.20
3548;DHT22;1788;49.400;11.092;2023-07-28T10:56:03;22.20;75.10
3548;DHT22;1788;49.400;11.092;2023-07-28T11:00:56;22.50;75.40
3548;DHT22;1788;49.400;11.092;2023-07-28T11:03:23;22.60;74.20
3548;DHT22;1788;49.400;11.092;2023-07-28T11:05:50;22.70;74.10
3548;DHT22;1788;49.400;11.092;2023-07-28T11:08:16;22.80;73.70
3548;DHT22;1788;49.400;11.092;2023-07-28T11:10:43;22.90;73.20
3548;DHT22;1788;49.400;11.092;2023-07-28T11:13:10;22.90;72.90
3548;DHT22;1788;49.400;11.092;2023-07-28T11:15:36;22.90;72.80
3548;DHT22;1788;49.400;11.092;2023-07-28T11:18:03;22.80;72.50
3548;DHT22;1788;49.400;11.092;2023-07-28T11:20:30;22.70;72.40
3548;DHT22;1788;49.400;11.092;2023-07-28T11:22:57;22.70;72.30
3548;DHT22;1788;49.400;11.092;2023-07-28T11:25:24;22.80;72.30
3548;DHT22;1788;49.400;11.092;2023-07-28T11:27:50;22.90;72.40
3548;DHT22;1788;49.400;11.092;2023-07-28T11:30:17;23.00;71.80
3548;DHT22;1788;49.400;11.092;2023-07-28T11:32:45;23.20;71.00
3548;DHT22;1788;49.400;11.092;2023-07-28T11:35:11;23.10;71.60
3548;DHT22;1788;49.400;11.092;2023-07-28T11:37:38;23.20;70.70
3548;DHT22;1788;49.400;11.092;2023-07-28T11:40:05;23.40;70.70
3548;DHT22;1788;49.400;11.092;2023-07-28T11:42:31;23.50;70.20
3548;DHT22;1788;49.400;11.092;2023-07-28T11:44:57;23.70;69.90
3548;DHT22;1788;49.400;11.092;2023-07-28T11:47:24;23.80;69.30
3548;DHT22;1788;49.400;11.092;2023-07-28T11:49:50;24.00;69.00
3548;DHT22;1788;49.400;11.092;2023-07-28T11:52:17;24.10;68.50
3548;DHT22;1788;49.400;11.092;2023-07-28T11:54:44;24.30;68.00
3548;DHT22;1788;49.400;11.092;2023-07-28T11:57:11;24.20;67.80
3548;DHT22;1788;49.400;11.092;2023-07-28T11:59:38;24.30;67.30
3548;DHT22;1788;49.400;11.092;2023-07-28T12:02:06;24.30;67.20
3548;DHT22;1788;49.400;11.092;2023-07-28T12:09:26;24.30;66.00
3548;DHT22;1788;49.400;11.092;2023-07-28T12:11:52;24.30;65.60
3548;DHT22;1788;49.400;11.092;2023-07-28T12:16:47;24.40;64.50
3548;DHT22;1788;49.400;11.092;2023-07-28T12:19:13;24.40;64.50
3548;DHT22;1788;49.400;11.092;2023-07-28T12:21:40;24.40;64.30
3548;DHT22;1788;49.400;11.092;2023-07-28T12:24:08;24.30;64.90
3548;DHT22;1788;49.400;11.092;2023-07-28T12:26:34;24.30;64.10
3548;DHT22;1788;49.400;11.092;2023-07-28T12:29:02;24.30;64.10
3548;DHT22;1788;49.400;11.092;2023-07-28T12:31:28;24.30;64.10
3548;DHT22;1788;49.400;11.092;2023-07-28T12:33:55;24.30;64.20
3548;DHT22;1788;49.400;11.092;2023-07-28T12:36:22;24.20;64.10
3548;DHT22;1788;49.400;11.092;2023-07-28T12:38:48;24.10;64.10
3548;DHT22;1788;49.400;11.092;2023-07-28T12:41:16;23.90;64.10
3548;DHT22;1788;49.400;11.092;2023-07-28T12:43:42;23.80;64.00
3548;DHT22;1788;49.400;11.092;2023-07-28T12:46:10;23.70;64.50
3548;DHT22;1788;49.400;11.092;2023-07-28T12:48:36;23.70;64.50
3548;DHT22;1788;49.400;11.092;2023-07-28T12:51:04;23.80;65.00
3548;DHT22;1788;49.400;11.092;2023-07-28T12:53:30;23.80;65.00
3548;DHT22;1788;49.400;11.092;2023-07-28T12:55:57;24.10;65.00
3548;DHT22;1788;49.400;11.092;2023-07-28T12:58:23;24.60;64.40
3548;DHT22;1788;49.400;11.092;2023-07-28T13:00:50;25.00;63.60
3548;DHT22;1788;49.400;11.092;2023-07-28T13:03:17;25.90;61.70
3548;DHT22;1788;49.400;11.092;2023-07-28T13:05:44;25.90;61.60
3548;DHT22;1788;49.400;11.092;2023-07-28T13:08:11;26.50;61.20
3548;DHT22;1788;49.400;11.092;2023-07-28T13:10:38;26.40;60.40
3548;DHT22;1788;49.400;11.092;2023-07-28T13:13:05;26.60;59.70
3548;DHT22;1788;49.400;11.092;2023-07-28T13:15:31;26.50;59.60
3548;DHT22;1788;49.400;11.092;2023-07-28T13:17:58;26.30;59.60
3548;DHT22;1788;49.400;11.092;2023-07-28T13:20:25;25.70;59.70
3548;DHT22;1788;49.400;11.092;2023-07-28T13:22:52;25.70;60.30
3548;DHT22;1788;49.400;11.092;2023-07-28T13:25:19;25.20;60.40
3548;DHT22;1788;49.400;11.092;2023-07-28T13:27:46;25.20;60.40
3548;DHT22;1788;49.400;11.092;2023-07-28T13:30:13;24.90;61.20
3548;DHT22;1788;49.400;11.092;2023-07-28T13:32:40;24.90;61.20
3548;DHT22;1788;49.400;11.092;2023-07-28T13:35:06;24.90;61.40
3548;DHT22;1788;49.400;11.092;2023-07-28T13:37:33;24.80;61.60
3548;DHT22;1788;49.400;11.092;2023-07-28T13:40:00;24.80;61.70
3548;DHT22;1788;49.400;11.092;2023-07-28T13:42:27;24.90;61.80
3548;DHT22;1788;49.400;11.092;2023-07-28T13:44:54;24.90;61.80
3548;DHT22;1788;49.400;11.092;2023-07-28T13:47:21;25.00;62.60
3548;DHT22;1788;49.400;11.092;2023-07-28T13:49:48;24.90;61.80
3548;DHT22;1788;49.400;11.092;2023-07-28T13:52:15;25.40;61.70
3548;DHT22;1788;49.400;11.092;2023-07-28T13:54:42;25.40;61.10
3548;DHT22;1788;49.400;11.092;2023-07-28T13:57:08;25.60;60.60
3548;DHT22;1788;49.400;11.092;2023-07-28T13:59:35;25.70;60.30
3548;DHT22;1788;49.400;11.092;2023-07-28T14:02:01;25.90;60.30
3548;DHT22;1788;49.400;11.092;2023-07-28T14:04:29;26.20;59.40
3548;DHT22;1788;49.400;11.092;2023-07-28T14:06:55;26.20;59.30
3548;DHT22;1788;49.400;11.092;2023-07-28T14:09:23;26.30;59.70
3548;DHT22;1788;49.400;11.092;2023-07-28T14:11:49;26.30;59.20
3548;DHT22;1788;49.400;11.092;2023-07-28T14:14:16;26.30;59.10
3548;DHT22;1788;49.400;11.092;2023-07-28T14:16:43;26.40;58.90
3548;DHT22;1788;49.400;11.092;2023-07-28T14:19:09;26.30;58.40
3548;DHT22;1788;49.400;11.092;2023-07-28T14:21:36;26.20;58.40
3548;DHT22;1788;49.400;11.092;2023-07-28T14:24:02;26.10;58.50
3548;DHT22;1788;49.400;11.092;2023-07-28T14:26:29;26.10;58.50
3548;DHT22;1788;49.400;11.092;2023-07-28T14:28:56;26.20;58.30
3548;DHT22;1788;49.400;11.092;2023-07-28T14:31:23;26.20;57.40
3548;DHT22;1788;49.400;11.092;2023-07-28T14:33:50;26.20;57.80
3548;DHT22;1788;49.400;11.092;2023-07-28T14:36:17;26.10;58.40
3548;DHT22;1788;49.400;11.092;2023-07-28T14:38:44;26.10;57.70
3548;DHT22;1788;49.400;11.092;2023-07-28T14:41:10;26.10;57.90
3548;DHT22;1788;49.400;11.092;2023-07-28T14:43:37;26.00;57.80
3548;DHT22;1788;49.400;11.092;2023-07-28T14:46:03;26.00;57.80
3548;DHT22;1788;49.400;11.092;2023-07-28T14:48:31;25.90;57.90
3548;DHT22;1788;49.400;11.092;2023-07-28T14:50:57;25.80;57.90
3548;DHT22;1788;49.400;11.092;2023-07-28T14:53:32;25.80;57.80
3548;DHT22;1788;49.400;11.092;2023-07-28T14:55:51;25.70;57.70
3548;DHT22;1788;49.400;11.092;2023-07-28T14:58:17;25.60;57.80
3548;DHT22;1788;49.400;11.092;2023-07-28T15:00:44;25.50;57.80
3548;DHT22;1788;49.400;11.092;2023-07-28T15:03:11;25.40;57.90
3548;DHT22;1788;49.400;11.092;2023-07-28T15:05:37;25.30;57.90
3548;DHT22;1788;49.400;11.092;2023-07-28T15:08:04;25.20;57.70
3548;DHT22;1788;49.400;11.092;2023-07-28T15:10:30;25.20;57.80
3548;DHT22;1788;49.400;11.092;2023-07-28T15:12:57;25.00;57.80
3548;DHT22;1788;49.400;11.092;2023-07-28T15:15:24;25.00;58.00
3548;DHT22;1788;49.400;11.092;2023-07-28T15:17:50;24.90;58.10
3548;DHT22;1788;49.400;11.092;2023-07-28T15:20:18;24.80;58.20
3548;DHT22;1788;49.400;11.092;2023-07-28T15:22:44;24.80;58.80
3548;DHT22;1788;49.400;11.092;2023-07-28T15:25:11;24.70;58.20
3548;DHT22;1788;49.400;11.092;2023-07-28T15:27:37;24.60;58.30
3548;DHT22;1788;49.400;11.092;2023-07-28T15:30:04;24.60;58.40
3548;DHT22;1788;49.400;11.092;2023-07-28T15:32:31;24.50;58.70
3548;DHT22;1788;49.400;11.092;2023-07-28T15:34:58;24.40;58.60
3548;DHT22;1788;49.400;11.092;2023-07-28T15:37:25;24.40;58.70
3548;DHT22;1788;49.400;11.092;2023-07-28T15:39:51;24.40;58.90
3548;DHT22;1788;49.400;11.092;2023-07-28T15:42:18;24.40;59.00
3548;DHT22;1788;49.400;11.092;2023-07-28T15:44:45;24.30;59.30
3548;DHT22;1788;49.400;11.092;2023-07-28T15:47:12;24.30;59.30
3548;DHT22;1788;49.400;11.092;2023-07-28T15:49:39;24.20;59.40
3548;DHT22;1788;49.400;11.092;2023-07-28T15:52:06;24.20;59.40
3548;DHT22;1788;49.400;11.092;2023-07-28T15:54:33;24.20;59.70
3548;DHT22;1788;49.400;11.092;2023-07-28T15:57:00;24.20;59.70
3548;DHT22;1788;49.400;11.092;2023-07-28T15:59:28;24.10;59.40
3548;DHT22;1788;49.400;11.092;2023-07-28T16:01:54;24.10;59.80
3548;DHT22;1788;49.400;11.092;2023-07-28T16:04:21;24.10;60.10
3548;DHT22;1788;49.400;11.092;2023-07-28T16:06:48;24.00;60.00
3548;DHT22;1788;49.400;11.092;2023-07-28T16:09:15;24.00;60.70
3548;DHT22;1788;49.400;11.092;2023-07-28T16:11:42;23.90;60.60